createdAt,value
2023-01-30T00:00:08.459Z,1.80
2023-01-30T00:01:08.459Z,1.90
2023-01-30T00:02:08.524Z,2.00
2023-01-30T00:03:08.488Z,1.90
2023-01-30T00:04:08.512Z,1.80
2023-01-30T00:05:08.641Z,1.80
2023-01-30T00:06:08.541Z,1.90
2023-01-30T00:07:08.558Z,1.70
2023-01-30T00:08:08.579Z,1.90
2023-01-30T00:09:08.587Z,1.80
2023-01-30T00:10:08.644Z,1.70
2023-01-30T00:11:08.627Z,2.00
2023-01-30T00:12:08.642Z,1.80
2023-01-30T00:13:08.657Z,1.80
2023-01-30T00:14:08.671Z,1.70
2023-01-30T00:15:08.689Z,1.60
2023-01-30T00:16:08.747Z,2.00
2023-01-30T00:17:08.724Z,1.80
2023-01-30T00:18:08.742Z,1.80
2023-01-30T00:19:08.755Z,1.60
2023-01-30T00:20:08.768Z,1.60
2023-01-30T00:21:08.792Z,1.80
2023-01-30T00:22:08.801Z,1.80
2023-01-30T00:23:08.820Z,1.90
2023-01-30T00:24:08.846Z,1.70
2023-01-30T00:25:09.168Z,1.90
2023-01-30T00:26:08.876Z,1.60
2023-01-30T00:27:08.886Z,1.90
2023-01-30T00:28:08.904Z,1.70
2023-01-30T00:29:08.923Z,1.70
2023-01-30T00:30:08.938Z,1.70
2023-01-30T00:31:08.966Z,1.80
2023-01-30T00:32:08.974Z,1.90
2023-01-30T00:33:09.022Z,1.70
2023-01-30T00:34:08.998Z,1.70
2023-01-30T00:35:09.023Z,1.70
2023-01-30T00:36:09.041Z,1.50
2023-01-30T00:37:09.052Z,1.70
2023-01-30T00:38:09.074Z,1.60
2023-01-30T00:39:09.091Z,1.80
2023-01-30T00:40:09.104Z,2.10
2023-01-30T00:41:09.121Z,1.80
2023-01-30T00:42:09.137Z,1.70
2023-01-30T00:43:09.168Z,1.70
2023-01-30T00:44:09.172Z,1.90
2023-01-30T00:45:09.199Z,1.60
2023-01-30T00:46:09.343Z,1.60
2023-01-30T00:47:09.303Z,1.70
2023-01-30T00:48:09.234Z,1.80
2023-01-30T00:49:09.246Z,1.50
2023-01-30T00:50:09.262Z,1.60
2023-01-30T00:51:09.286Z,1.70
2023-01-30T00:52:09.302Z,1.70
2023-01-30T00:53:09.318Z,1.70
2023-01-30T00:54:09.328Z,1.70
2023-01-30T00:55:09.385Z,1.70
2023-01-30T00:56:09.367Z,1.80
2023-01-30T00:57:09.376Z,1.80
2023-01-30T00:58:09.399Z,1.80
2023-01-30T00:59:09.434Z,1.70
2023-01-30T01:00:09.433Z,1.70
2023-01-30T01:01:09.445Z,1.60
2023-01-30T01:02:09.470Z,1.60
2023-01-30T01:03:09.656Z,1.70
2023-01-30T01:04:09.499Z,1.80
2023-01-30T01:05:09.524Z,1.70
2023-01-30T01:06:09.532Z,1.70
2023-01-30T01:07:09.540Z,1.60
2023-01-30T01:08:09.562Z,1.90
2023-01-30T01:09:09.584Z,1.50
2023-01-30T01:10:09.601Z,1.60
2023-01-30T01:11:09.604Z,1.60
2023-01-30T01:12:09.627Z,1.50
2023-01-30T01:13:09.637Z,1.70
2023-01-30T01:14:09.657Z,1.60
2023-01-30T01:15:09.677Z,1.60
2023-01-30T01:16:09.710Z,1.50
2023-01-30T01:17:09.711Z,1.70
2023-01-30T01:18:09.738Z,1.60
2023-01-30T01:19:09.746Z,1.50
2023-01-30T01:20:09.750Z,1.70
2023-01-30T01:21:09.778Z,1.70
2023-01-30T01:22:09.789Z,1.60
2023-01-30T01:23:09.812Z,1.80
2023-01-30T01:24:09.816Z,1.70
2023-01-30T01:25:09.874Z,1.50
2023-01-30T01:26:09.928Z,1.60
2023-01-30T01:27:09.867Z,1.80
2023-01-30T01:28:09.891Z,1.70
2023-01-30T01:29:09.899Z,1.60
2023-01-30T01:30:09.916Z,1.90
2023-01-30T01:31:10.066Z,1.60
2023-01-30T01:32:10.017Z,1.50
2023-01-30T01:33:09.973Z,1.70
2023-01-30T01:34:09.991Z,1.70
2023-01-30T01:35:09.995Z,1.60
2023-01-30T01:36:10.019Z,1.40
2023-01-30T01:37:10.036Z,1.70
2023-01-30T01:38:10.047Z,1.70
2023-01-30T01:39:10.079Z,1.50
2023-01-30T01:40:10.089Z,1.60
2023-01-30T01:41:10.094Z,1.40
2023-01-30T01:42:11.398Z,1.60
2023-01-30T01:43:10.125Z,1.60
2023-01-30T01:44:10.159Z,1.50
2023-01-30T01:45:10.168Z,1.70
2023-01-30T01:46:10.252Z,1.60
2023-01-30T01:47:10.198Z,1.60
2023-01-30T01:48:10.209Z,1.80
2023-01-30T01:49:10.223Z,1.50
2023-01-30T01:50:10.243Z,1.40
2023-01-30T01:51:10.255Z,1.50
2023-01-30T01:52:10.275Z,1.60
2023-01-30T01:53:10.296Z,1.50
2023-01-30T01:54:10.313Z,1.60
2023-01-30T01:55:10.321Z,1.60
2023-01-30T01:56:10.345Z,1.50
2023-01-30T01:57:10.366Z,1.70
2023-01-30T01:58:10.376Z,1.70
2023-01-30T01:59:10.400Z,1.50
2023-01-30T02:00:10.406Z,1.60
2023-01-30T02:01:10.481Z,1.30
2023-01-30T02:02:10.476Z,1.60
2023-01-30T02:03:10.460Z,1.30
2023-01-30T02:04:10.475Z,1.60
2023-01-30T02:05:10.483Z,1.60
2023-01-30T02:06:10.501Z,1.50
2023-01-30T02:07:10.526Z,1.60
2023-01-30T02:08:10.537Z,1.40
2023-01-30T02:09:10.548Z,1.60
2023-01-30T02:10:10.572Z,1.50
2023-01-30T02:11:10.584Z,1.50
2023-01-30T02:12:10.605Z,1.40
2023-01-30T02:13:10.620Z,1.50
2023-01-30T02:14:10.630Z,1.60
2023-01-30T02:15:10.646Z,1.50
2023-01-30T02:16:10.669Z,1.50
2023-01-30T02:17:10.746Z,1.40
2023-01-30T02:18:10.703Z,1.50
2023-01-30T02:19:10.718Z,1.60
2023-01-30T02:20:10.734Z,1.40
2023-01-30T02:21:10.749Z,1.50
2023-01-30T02:22:10.767Z,1.30
2023-01-30T02:23:10.784Z,1.40
2023-01-30T02:24:10.797Z,1.40
2023-01-30T02:25:10.824Z,1.50
2023-01-30T02:26:10.829Z,1.50
2023-01-30T02:27:10.847Z,1.30
2023-01-30T02:28:10.857Z,1.50
2023-01-30T02:29:10.881Z,1.50
2023-01-30T02:30:10.890Z,1.40
2023-01-30T02:31:11.057Z,1.30
2023-01-30T02:32:10.923Z,1.20
2023-01-30T02:33:10.939Z,1.50
2023-01-30T02:34:10.961Z,1.30
2023-01-30T02:35:10.977Z,1.30
2023-01-30T02:36:11.015Z,1.30
2023-01-30T02:37:11.013Z,1.40
2023-01-30T02:38:11.044Z,1.30
2023-01-30T02:39:11.036Z,1.60
2023-01-30T02:40:11.057Z,1.30
2023-01-30T02:41:11.074Z,1.40
2023-01-30T02:42:11.091Z,1.20
2023-01-30T02:43:11.129Z,1.20
2023-01-30T02:44:11.124Z,1.40
2023-01-30T02:45:11.164Z,1.20
2023-01-30T02:46:11.286Z,1.50
2023-01-30T02:47:11.164Z,1.30
2023-01-30T02:48:11.188Z,1.30
2023-01-30T02:49:11.196Z,1.30
2023-01-30T02:50:11.212Z,1.40
2023-01-30T02:51:11.240Z,1.50
2023-01-30T02:52:11.252Z,1.50
2023-01-30T02:53:11.264Z,1.10
2023-01-30T02:54:11.277Z,1.40
2023-01-30T02:55:11.299Z,1.30
2023-01-30T02:56:11.321Z,1.20
2023-01-30T02:57:11.327Z,1.40
2023-01-30T02:58:11.348Z,1.30
2023-01-30T02:59:11.358Z,1.20
2023-01-30T03:00:11.431Z,1.20
2023-01-30T03:01:11.418Z,1.50
2023-01-30T03:02:11.425Z,1.40
2023-01-30T03:03:11.423Z,1.40
2023-01-30T03:04:11.439Z,1.40
2023-01-30T03:05:11.463Z,1.30
2023-01-30T03:06:11.474Z,1.30
2023-01-30T03:07:11.500Z,1.30
2023-01-30T03:08:11.503Z,1.40
2023-01-30T03:09:11.519Z,1.30
2023-01-30T03:10:11.534Z,1.30
2023-01-30T03:11:11.550Z,1.40
2023-01-30T03:12:11.570Z,1.50
2023-01-30T03:13:11.594Z,1.40
2023-01-30T03:14:11.602Z,1.30
2023-01-30T03:15:11.626Z,1.40
2023-01-30T03:16:11.660Z,1.30
2023-01-30T03:17:11.649Z,1.30
2023-01-30T03:18:11.669Z,1.50
2023-01-30T03:19:11.679Z,1.20
2023-01-30T03:20:11.697Z,1.10
2023-01-30T03:21:11.722Z,1.30
2023-01-30T03:22:11.735Z,1.40
2023-01-30T03:23:11.748Z,1.40
2023-01-30T03:24:11.770Z,1.30
2023-01-30T03:25:11.778Z,1.20
2023-01-30T03:26:11.836Z,1.30
2023-01-30T03:27:11.815Z,1.30
2023-01-30T03:28:11.839Z,1.30
2023-01-30T03:29:11.853Z,1.40
2023-01-30T03:30:11.857Z,1.30
2023-01-30T03:31:11.995Z,1.30
2023-01-30T03:32:11.896Z,1.20
2023-01-30T03:33:11.909Z,1.40
2023-01-30T03:34:11.920Z,1.10
2023-01-30T03:35:11.951Z,1.30
2023-01-30T03:36:11.998Z,1.40
2023-01-30T03:37:11.973Z,1.30
2023-01-30T03:38:11.995Z,1.30
2023-01-30T03:39:12.006Z,1.30
2023-01-30T03:40:12.018Z,1.30
2023-01-30T03:41:12.043Z,1.50
2023-01-30T03:42:12.056Z,1.40
2023-01-30T03:43:12.075Z,1.10
2023-01-30T03:44:12.103Z,1.30
2023-01-30T03:45:12.099Z,1.20
2023-01-30T03:46:12.264Z,1.30
2023-01-30T03:47:12.131Z,1.30
2023-01-30T03:48:12.152Z,1.50
2023-01-30T03:49:12.170Z,1.40
2023-01-30T03:50:12.187Z,1.30
2023-01-30T03:51:12.207Z,1.20
2023-01-30T03:52:12.212Z,1.10
2023-01-30T03:53:12.232Z,1.40
2023-01-30T03:54:12.288Z,1.20
2023-01-30T03:55:12.259Z,1.30
2023-01-30T03:56:12.318Z,1.30
2023-01-30T03:57:12.305Z,1.10
2023-01-30T03:58:12.312Z,1.30
2023-01-30T03:59:12.331Z,1.30
2023-01-30T04:00:12.374Z,1.20
2023-01-30T04:01:12.405Z,1.30
2023-01-30T04:02:12.415Z,1.40
2023-01-30T04:03:12.397Z,1.30
2023-01-30T04:04:12.414Z,1.20
2023-01-30T04:05:12.430Z,1.30
2023-01-30T04:06:12.447Z,1.30
2023-01-30T04:07:12.451Z,1.30
2023-01-30T04:08:12.471Z,1.30
2023-01-30T04:09:12.483Z,1.40
2023-01-30T04:10:12.497Z,1.70
2023-01-30T04:11:12.522Z,1.60
2023-01-30T04:12:12.530Z,1.30
2023-01-30T04:13:12.556Z,1.30
2023-01-30T04:14:12.565Z,1.40
2023-01-30T04:15:12.590Z,1.50
2023-01-30T04:16:12.624Z,1.40
2023-01-30T04:17:12.619Z,1.30
2023-01-30T04:18:12.640Z,1.40
2023-01-30T04:19:12.649Z,1.30
2023-01-30T04:20:12.665Z,1.30
2023-01-30T04:21:12.715Z,1.40
2023-01-30T04:22:12.704Z,1.30
2023-01-30T04:23:12.715Z,1.20
2023-01-30T04:24:12.723Z,1.30
2023-01-30T04:25:12.746Z,1.40
2023-01-30T04:26:12.784Z,1.40
2023-01-30T04:27:12.772Z,1.30
2023-01-30T04:28:12.787Z,1.40
2023-01-30T04:29:12.826Z,1.40
2023-01-30T04:30:12.831Z,1.60
2023-01-30T04:31:12.865Z,1.40
2023-01-30T04:32:12.881Z,1.50
2023-01-30T04:33:12.889Z,1.40
2023-01-30T04:34:12.885Z,1.60
2023-01-30T04:35:12.927Z,1.40
2023-01-30T04:36:12.930Z,1.40
2023-01-30T04:37:12.930Z,1.40
2023-01-30T04:38:12.964Z,1.60
2023-01-30T04:39:12.973Z,1.20
2023-01-30T04:40:12.984Z,1.60
2023-01-30T04:41:13.002Z,1.30
2023-01-30T04:42:13.035Z,1.30
2023-01-30T04:43:13.034Z,1.40
2023-01-30T04:44:13.051Z,1.40
2023-01-30T04:45:13.074Z,1.40
2023-01-30T04:46:13.114Z,1.40
2023-01-30T04:47:13.146Z,1.30
2023-01-30T04:48:13.125Z,1.50
2023-01-30T04:49:13.138Z,1.50
2023-01-30T04:50:13.151Z,1.50
2023-01-30T04:51:13.172Z,1.50
2023-01-30T04:52:13.179Z,1.50
2023-01-30T04:53:13.201Z,1.10
2023-01-30T04:54:13.220Z,1.30
2023-01-30T04:55:13.236Z,1.40
2023-01-30T04:56:13.264Z,1.40
2023-01-30T04:57:13.261Z,1.30
2023-01-30T04:58:13.265Z,1.20
2023-01-30T04:59:13.289Z,1.50
2023-01-30T05:00:13.305Z,1.40
2023-01-30T05:01:13.315Z,1.40
2023-01-30T05:02:13.364Z,1.60
2023-01-30T05:03:13.358Z,1.60
2023-01-30T05:04:13.384Z,1.30
2023-01-30T05:05:13.390Z,1.50
2023-01-30T05:06:13.412Z,1.40
2023-01-30T05:07:13.410Z,1.50
2023-01-30T05:08:13.434Z,1.40
2023-01-30T05:09:13.443Z,1.40
2023-01-30T05:10:13.463Z,1.40
2023-01-30T05:11:13.488Z,1.40
2023-01-30T05:12:13.498Z,1.50
2023-01-30T05:13:13.516Z,1.40
2023-01-30T05:14:13.520Z,1.40
2023-01-30T05:15:13.544Z,1.60
2023-01-30T05:16:13.561Z,1.50
2023-01-30T05:17:13.763Z,1.30
2023-01-30T05:18:13.601Z,1.30
2023-01-30T05:19:13.818Z,1.60
2023-01-30T05:20:13.647Z,1.60
2023-01-30T05:21:13.640Z,1.30
2023-01-30T05:22:13.649Z,1.40
2023-01-30T05:23:13.673Z,1.50
2023-01-30T05:24:13.682Z,1.40
2023-01-30T05:25:13.716Z,1.60
2023-01-30T05:26:13.741Z,1.30
2023-01-30T05:27:13.740Z,1.40
2023-01-30T05:28:13.763Z,1.40
2023-01-30T05:29:13.762Z,1.50
2023-01-30T05:30:13.796Z,1.40
2023-01-30T05:31:13.902Z,1.40
2023-01-30T05:32:13.822Z,1.50
2023-01-30T05:33:13.873Z,1.30
2023-01-30T05:34:13.845Z,1.20
2023-01-30T05:35:13.857Z,1.40
2023-01-30T05:36:13.903Z,1.60
2023-01-30T05:37:13.890Z,1.40
2023-01-30T05:38:13.903Z,1.60
2023-01-30T05:39:13.919Z,1.30
2023-01-30T05:40:13.950Z,1.50
2023-01-30T05:41:13.960Z,1.30
2023-01-30T05:42:13.968Z,1.40
2023-01-30T05:43:14.003Z,1.40
2023-01-30T05:44:14.003Z,1.50
2023-01-30T05:45:14.038Z,1.50
2023-01-30T05:46:14.118Z,1.50
2023-01-30T05:47:14.045Z,1.50
2023-01-30T05:48:14.071Z,1.30
2023-01-30T05:49:14.084Z,1.40
2023-01-30T05:50:14.093Z,1.40
2023-01-30T05:51:14.124Z,1.30
2023-01-30T05:52:14.154Z,1.50
2023-01-30T05:53:14.142Z,1.50
2023-01-30T05:54:14.161Z,1.60
2023-01-30T05:55:14.172Z,1.50
2023-01-30T05:56:14.189Z,1.30
2023-01-30T05:57:14.216Z,1.30
2023-01-30T05:58:14.232Z,1.50
2023-01-30T05:59:14.238Z,1.60
2023-01-30T06:00:14.253Z,1.40
2023-01-30T06:01:14.288Z,1.30
2023-01-30T06:02:14.299Z,1.50
2023-01-30T06:03:14.308Z,1.30
2023-01-30T06:04:14.317Z,1.30
2023-01-30T06:05:14.335Z,1.60
2023-01-30T06:06:14.359Z,1.50
2023-01-30T06:07:14.366Z,1.40
2023-01-30T06:08:14.401Z,1.50
2023-01-30T06:09:14.406Z,1.40
2023-01-30T06:10:14.421Z,1.40
2023-01-30T06:11:14.438Z,1.40
2023-01-30T06:12:14.446Z,1.50
2023-01-30T06:13:14.468Z,1.40
2023-01-30T06:14:14.484Z,1.60
2023-01-30T06:15:14.504Z,1.50
2023-01-30T06:16:14.663Z,1.40
2023-01-30T06:17:14.542Z,1.50
2023-01-30T06:18:14.539Z,1.50
2023-01-30T06:19:14.556Z,1.60
2023-01-30T06:20:14.579Z,1.40
2023-01-30T06:21:14.587Z,1.60
2023-01-30T06:22:14.614Z,1.60
2023-01-30T06:23:14.632Z,1.50
2023-01-30T06:24:14.672Z,1.50
2023-01-30T06:25:14.662Z,1.50
2023-01-30T06:26:14.766Z,1.50
2023-01-30T06:27:14.696Z,1.70
2023-01-30T06:28:14.710Z,1.40
2023-01-30T06:29:14.721Z,1.50
2023-01-30T06:30:14.765Z,1.60
2023-01-30T06:31:14.837Z,1.60
2023-01-30T06:32:14.774Z,1.50
2023-01-30T06:33:14.790Z,1.50
2023-01-30T06:34:14.798Z,1.50
2023-01-30T06:35:14.817Z,1.50
2023-01-30T06:36:14.834Z,1.50
2023-01-30T06:37:14.841Z,1.50
2023-01-30T06:38:14.862Z,1.70
2023-01-30T06:39:14.899Z,1.70
2023-01-30T06:40:14.922Z,1.60
2023-01-30T06:41:14.906Z,1.40
2023-01-30T06:42:14.926Z,1.30
2023-01-30T06:43:14.946Z,1.80
2023-01-30T06:44:14.953Z,1.40
2023-01-30T06:45:14.975Z,1.50
2023-01-30T06:46:15.052Z,1.40
2023-01-30T06:47:15.009Z,1.50
2023-01-30T06:48:15.017Z,1.50
2023-01-30T06:49:15.037Z,1.40
2023-01-30T06:50:15.052Z,1.40
2023-01-30T06:51:15.071Z,1.50
2023-01-30T06:52:15.079Z,1.50
2023-01-30T06:53:15.107Z,1.50
2023-01-30T06:54:15.109Z,1.40
2023-01-30T06:55:15.289Z,1.30
2023-01-30T06:56:15.170Z,1.60
2023-01-30T06:57:15.166Z,1.40
2023-01-30T06:58:15.200Z,1.70
2023-01-30T06:59:15.198Z,1.30
2023-01-30T07:00:15.217Z,1.50
2023-01-30T07:01:15.245Z,1.40
2023-01-30T07:02:15.373Z,1.50
2023-01-30T07:03:15.284Z,1.50
2023-01-30T07:04:15.330Z,1.50
2023-01-30T07:05:15.327Z,1.40
2023-01-30T07:06:15.318Z,1.50
2023-01-30T07:07:15.318Z,1.50
2023-01-30T07:08:15.340Z,1.60
2023-01-30T07:09:15.372Z,1.50
2023-01-30T07:10:15.372Z,1.60
2023-01-30T07:11:15.384Z,1.40
2023-01-30T07:12:15.521Z,1.40
2023-01-30T07:13:15.418Z,1.60
2023-01-30T07:14:15.437Z,1.50
2023-01-30T07:15:15.572Z,1.30
2023-01-30T07:16:15.461Z,1.40
2023-01-30T07:17:15.476Z,1.50
2023-01-30T07:18:15.493Z,1.50
2023-01-30T07:19:15.515Z,1.50
2023-01-30T07:20:15.535Z,1.60
2023-01-30T07:21:15.548Z,1.50
2023-01-30T07:22:15.559Z,1.30
2023-01-30T07:23:15.578Z,1.40
2023-01-30T07:24:15.584Z,1.30
2023-01-30T07:25:16.105Z,1.30
2023-01-30T07:26:15.666Z,1.30
2023-01-30T07:27:15.648Z,1.50
2023-01-30T07:28:15.669Z,1.40
2023-01-30T07:29:15.666Z,1.30
2023-01-30T07:30:15.686Z,1.50
2023-01-30T07:31:15.712Z,1.30
2023-01-30T07:32:15.722Z,1.50
2023-01-30T07:33:15.729Z,1.50
2023-01-30T07:34:15.751Z,1.40
2023-01-30T07:35:15.777Z,1.50
2023-01-30T07:36:15.775Z,1.40
2023-01-30T07:37:15.804Z,1.30
2023-01-30T07:38:15.805Z,1.50
2023-01-30T07:39:15.821Z,1.60
2023-01-30T07:40:15.869Z,1.60
2023-01-30T07:41:15.860Z,1.20
2023-01-30T07:42:15.881Z,1.50
2023-01-30T07:43:15.899Z,1.10
2023-01-30T07:44:15.924Z,1.40
2023-01-30T07:45:16.340Z,1.30
2023-01-30T07:46:15.938Z,1.20
2023-01-30T07:47:15.975Z,1.30
2023-01-30T07:48:15.968Z,1.20
2023-01-30T07:49:15.995Z,1.40
2023-01-30T07:50:16.445Z,1.20
2023-01-30T07:51:16.011Z,1.40
2023-01-30T07:52:16.028Z,1.40
2023-01-30T07:53:16.084Z,1.20
2023-01-30T07:54:16.073Z,1.30
2023-01-30T07:55:16.514Z,1.30
2023-01-30T07:56:16.097Z,1.20
2023-01-30T07:57:16.116Z,1.30
2023-01-30T07:58:16.122Z,1.30
2023-01-30T07:59:16.155Z,1.20
2023-01-30T08:00:16.533Z,1.30
2023-01-30T08:01:16.294Z,1.40
2023-01-30T08:02:16.192Z,1.20
2023-01-30T08:03:16.208Z,1.30
2023-01-30T08:04:16.248Z,1.20
2023-01-30T08:05:16.240Z,1.30
2023-01-30T08:06:16.256Z,1.30
2023-01-30T08:07:16.266Z,1.20
2023-01-30T08:08:16.279Z,1.40
2023-01-30T08:09:16.303Z,1.30
2023-01-30T08:10:16.950Z,1.20
2023-01-30T08:11:16.326Z,1.30
2023-01-30T08:12:16.360Z,1.10
2023-01-30T08:13:16.360Z,1.20
2023-01-30T08:14:16.380Z,1.30
2023-01-30T08:15:16.393Z,1.20
2023-01-30T08:16:16.504Z,1.20
2023-01-30T08:17:16.431Z,1.10
2023-01-30T08:18:16.448Z,1.20
2023-01-30T08:19:16.453Z,1.30
2023-01-30T08:20:17.248Z,1.10
2023-01-30T08:21:16.488Z,1.10
2023-01-30T08:22:16.531Z,1.10
2023-01-30T08:23:16.535Z,1.20
2023-01-30T08:24:16.538Z,1.20
2023-01-30T08:25:16.567Z,1.20
2023-01-30T08:26:16.684Z,1.30
2023-01-30T08:27:16.585Z,1.20
2023-01-30T08:28:16.595Z,1.20
2023-01-30T08:29:16.637Z,1.20
2023-01-30T08:30:16.920Z,1.10
2023-01-30T08:31:16.803Z,1.10
2023-01-30T08:32:16.685Z,1.10
2023-01-30T08:33:16.678Z,1.20
2023-01-30T08:34:16.697Z,1.20
2023-01-30T08:35:16.703Z,1.10
2023-01-30T08:36:16.728Z,1.00
2023-01-30T08:37:16.772Z,1.30
2023-01-30T08:38:16.762Z,1.10
2023-01-30T08:39:16.770Z,1.30
2023-01-30T08:40:17.166Z,1.20
2023-01-30T08:41:16.807Z,1.10
2023-01-30T08:42:16.826Z,1.20
2023-01-30T08:43:16.827Z,1.20
2023-01-30T08:44:16.843Z,1.30
2023-01-30T08:45:16.862Z,1.10
2023-01-30T08:46:16.894Z,1.20
2023-01-30T08:47:16.892Z,1.20
2023-01-30T08:48:16.927Z,1.30
2023-01-30T08:49:16.936Z,1.30
2023-01-30T08:50:17.478Z,1.20
2023-01-30T08:51:16.965Z,1.10
2023-01-30T08:52:16.975Z,1.30
2023-01-30T08:53:16.986Z,1.10
2023-01-30T08:54:17.006Z,1.10
2023-01-30T08:55:17.019Z,1.20
2023-01-30T08:56:17.056Z,1.20
2023-01-30T08:57:17.055Z,1.10
2023-01-30T08:58:17.067Z,1.20
2023-01-30T08:59:17.089Z,1.20
2023-01-30T09:00:17.476Z,1.30
2023-01-30T09:01:17.180Z,1.10
2023-01-30T09:02:17.148Z,1.10
2023-01-30T09:03:17.148Z,1.20
2023-01-30T09:04:17.186Z,1.30
2023-01-30T09:05:17.175Z,1.30
2023-01-30T09:06:17.189Z,1.20
2023-01-30T09:07:17.203Z,1.20
2023-01-30T09:08:17.220Z,1.30
2023-01-30T09:09:17.238Z,1.00
2023-01-30T09:10:17.735Z,1.40
2023-01-30T09:11:17.276Z,1.30
2023-01-30T09:12:17.292Z,1.30
2023-01-30T09:13:17.303Z,1.20
2023-01-30T09:14:17.313Z,1.20
2023-01-30T09:15:17.339Z,1.20
2023-01-30T09:16:17.429Z,1.20
2023-01-30T09:17:17.364Z,1.10
2023-01-30T09:18:17.383Z,1.20
2023-01-30T09:19:17.401Z,1.00
2023-01-30T09:20:17.799Z,1.20
2023-01-30T09:21:17.443Z,1.20
2023-01-30T09:22:17.453Z,1.20
2023-01-30T09:23:17.456Z,1.30
2023-01-30T09:24:17.479Z,1.20
2023-01-30T09:25:17.486Z,1.10
2023-01-30T09:26:17.531Z,1.20
2023-01-30T09:27:17.524Z,1.20
2023-01-30T09:28:17.553Z,1.30
2023-01-30T09:29:17.562Z,1.20
2023-01-30T09:30:18.038Z,1.10
2023-01-30T09:31:17.686Z,1.20
2023-01-30T09:32:17.596Z,1.20
2023-01-30T09:33:17.620Z,1.20
2023-01-30T09:34:17.637Z,1.30
2023-01-30T09:35:17.650Z,1.10
2023-01-30T09:36:17.680Z,1.20
2023-01-30T09:37:17.682Z,1.30
2023-01-30T09:38:17.704Z,1.10
2023-01-30T09:39:17.713Z,1.20
2023-01-30T09:40:18.078Z,1.10
2023-01-30T09:41:17.759Z,1.30
2023-01-30T09:42:17.760Z,1.10
2023-01-30T09:43:17.779Z,1.10
2023-01-30T09:44:17.791Z,1.20
2023-01-30T09:45:17.817Z,1.00
2023-01-30T09:46:17.863Z,1.30
2023-01-30T09:47:17.831Z,1.20
2023-01-30T09:48:18.375Z,1.20
2023-01-30T09:49:17.869Z,1.10
2023-01-30T09:50:18.301Z,1.30
2023-01-30T09:51:17.895Z,1.10
2023-01-30T09:52:17.955Z,1.10
2023-01-30T09:53:17.925Z,1.20
2023-01-30T09:54:17.988Z,1.00
2023-01-30T09:55:17.965Z,1.10
2023-01-30T09:56:17.987Z,1.00
2023-01-30T09:57:21.935Z,1.20
2023-01-30T09:58:18.002Z,1.00
2023-01-30T09:59:18.022Z,1.10
2023-01-30T10:00:18.411Z,1.20
2023-01-30T10:01:19.523Z,1.10
2023-01-30T10:02:18.064Z,1.20
2023-01-30T10:03:18.122Z,1.10
2023-01-30T10:04:18.127Z,1.20
2023-01-30T10:05:18.121Z,1.10
2023-01-30T10:06:18.125Z,1.20
2023-01-30T10:07:18.145Z,1.30
2023-01-30T10:08:18.194Z,1.10
2023-01-30T10:09:18.180Z,1.10
2023-01-30T10:10:18.516Z,1.00
2023-01-30T10:11:18.205Z,1.10
2023-01-30T10:12:18.229Z,1.10
2023-01-30T10:13:18.237Z,1.10
2023-01-30T10:14:18.251Z,1.00
2023-01-30T10:15:18.274Z,1.10
2023-01-30T10:16:18.312Z,1.00
2023-01-30T10:17:18.298Z,1.00
2023-01-30T10:18:18.315Z,1.10
2023-01-30T10:19:33.661Z,1.00
2023-01-30T10:20:18.347Z,0.90
2023-01-30T10:21:18.361Z,1.20
2023-01-30T10:22:18.472Z,1.00
2023-01-30T10:23:18.392Z,1.10
2023-01-30T10:24:18.429Z,1.10
2023-01-30T10:25:18.434Z,1.20
2023-01-30T10:26:18.477Z,1.00
2023-01-30T10:27:18.462Z,1.00
2023-01-30T10:28:18.470Z,0.90
2023-01-30T10:29:18.508Z,1.00
2023-01-30T10:30:18.769Z,0.90
2023-01-30T10:31:18.681Z,1.10
2023-01-30T10:32:18.599Z,1.00
2023-01-30T10:33:18.555Z,1.20
2023-01-30T10:34:18.630Z,1.20
2023-01-30T10:35:18.589Z,1.10
2023-01-30T10:36:18.630Z,1.10
2023-01-30T10:37:18.618Z,1.00
2023-01-30T10:38:18.645Z,1.00
2023-01-30T10:39:18.653Z,1.10
2023-01-30T10:40:19.064Z,1.20
2023-01-30T10:41:18.682Z,1.00
2023-01-30T10:42:18.691Z,1.00
2023-01-30T10:43:18.704Z,1.00
2023-01-30T10:44:18.727Z,1.10
2023-01-30T10:45:18.747Z,1.00
2023-01-30T10:46:18.775Z,1.10
2023-01-30T10:47:18.780Z,1.00
2023-01-30T10:48:18.791Z,1.10
2023-01-30T10:49:18.798Z,0.90
2023-01-30T10:50:19.314Z,1.00
2023-01-30T10:51:18.837Z,1.10
2023-01-30T10:52:18.847Z,1.10
2023-01-30T10:53:18.860Z,1.00
2023-01-30T10:54:19.980Z,1.00
2023-01-30T10:55:31.489Z,0.90
2023-01-30T10:56:18.935Z,1.00
2023-01-30T10:57:18.934Z,0.90
2023-01-30T10:58:18.945Z,1.10
2023-01-30T10:59:18.956Z,1.00
2023-01-30T11:00:19.343Z,1.00
2023-01-30T11:01:18.986Z,1.30
2023-01-30T11:02:19.002Z,1.10
2023-01-30T11:03:19.025Z,1.00
2023-01-30T11:04:19.041Z,1.10
2023-01-30T11:05:19.475Z,1.10
2023-01-30T11:06:19.097Z,0.90
2023-01-30T11:07:19.088Z,1.10
2023-01-30T11:08:19.098Z,0.90
2023-01-30T11:09:19.119Z,1.00
2023-01-30T11:10:19.225Z,1.00
2023-01-30T11:11:19.143Z,1.10
2023-01-30T11:12:19.178Z,1.00
2023-01-30T11:13:19.173Z,1.00
2023-01-30T11:14:19.191Z,1.10
2023-01-30T11:15:19.531Z,1.00
2023-01-30T11:16:19.250Z,0.90
2023-01-30T11:17:19.244Z,1.00
2023-01-30T11:19:21.667Z,1.10
2023-01-30T11:20:19.683Z,0.90
2023-01-30T11:21:19.309Z,0.80
2023-01-30T11:22:19.322Z,1.00
2023-01-30T11:23:20.795Z,1.00
2023-01-30T11:24:19.368Z,1.00
2023-01-30T11:25:19.738Z,1.00
2023-01-30T11:26:19.396Z,1.00
2023-01-30T11:27:19.500Z,1.00
2023-01-30T11:28:19.445Z,0.80
2023-01-30T11:29:19.424Z,1.00
2023-01-30T11:30:19.811Z,1.20
2023-01-30T11:31:28.256Z,0.90
2023-01-30T11:32:19.491Z,1.00
2023-01-30T11:33:19.493Z,1.10
2023-01-30T11:34:19.514Z,1.10
2023-01-30T11:35:19.530Z,0.80
2023-01-30T11:36:19.541Z,1.10
2023-01-30T11:37:19.561Z,1.00
2023-01-30T11:38:19.564Z,1.00
2023-01-30T11:39:19.591Z,1.00
2023-01-30T11:40:20.195Z,1.00
2023-01-30T11:41:19.619Z,1.00
2023-01-30T11:42:19.633Z,1.00
2023-01-30T11:43:19.643Z,1.10
2023-01-30T11:44:19.689Z,1.00
2023-01-30T11:45:19.681Z,1.00
2023-01-30T11:46:19.698Z,1.00
2023-01-30T11:47:19.705Z,1.10
2023-01-30T11:48:33.086Z,1.10
2023-01-30T11:49:44.506Z,1.00
2023-01-30T11:50:22.598Z,1.00
2023-01-30T11:51:19.773Z,1.00
2023-01-30T11:52:19.808Z,1.10
2023-01-30T11:53:19.809Z,1.20
2023-01-30T11:54:19.812Z,1.00
2023-01-30T11:55:19.837Z,1.00
2023-01-30T11:56:19.846Z,1.10
2023-01-30T11:57:19.862Z,1.00
2023-01-30T11:58:19.875Z,1.10
2023-01-30T11:59:19.892Z,1.30
2023-01-30T12:00:20.461Z,1.30
2023-01-30T12:01:19.930Z,1.30
2023-01-30T12:02:20.061Z,1.20
2023-01-30T12:03:22.513Z,1.00
2023-01-30T12:04:19.971Z,1.30
2023-01-30T12:05:19.992Z,1.10
2023-01-30T12:06:20.006Z,1.10
2023-01-30T12:07:20.026Z,1.40
2023-01-30T12:08:24.763Z,1.20
2023-01-30T12:09:20.059Z,1.20
2023-01-30T12:10:20.501Z,1.30
2023-01-30T12:11:20.088Z,1.40
2023-01-30T12:12:20.102Z,1.30
2023-01-30T12:13:20.113Z,1.20
2023-01-30T12:14:20.136Z,1.20
2023-01-30T12:15:20.151Z,1.20
2023-01-30T12:16:20.211Z,1.30
2023-01-30T12:17:20.182Z,1.20
2023-01-30T12:18:20.192Z,1.40
2023-01-30T12:19:20.206Z,1.20
2023-01-30T12:20:20.693Z,1.40
2023-01-30T12:21:20.243Z,1.40
2023-01-30T12:22:20.265Z,1.40
2023-01-30T12:23:20.276Z,1.20
2023-01-30T12:24:20.293Z,1.40
2023-01-30T12:25:20.319Z,1.30
2023-01-30T12:26:20.403Z,1.30
2023-01-30T12:27:20.342Z,1.40
2023-01-30T12:28:20.356Z,1.50
2023-01-30T12:29:20.377Z,1.40
2023-01-30T12:30:20.844Z,1.50
2023-01-30T12:31:20.401Z,1.40
2023-01-30T12:32:20.430Z,1.60
2023-01-30T12:33:20.435Z,1.60
2023-01-30T12:34:24.259Z,1.40
2023-01-30T12:35:20.768Z,1.40
2023-01-30T12:36:20.474Z,1.40
2023-01-30T12:37:20.495Z,1.30
2023-01-30T12:38:20.504Z,1.30
2023-01-30T12:39:20.526Z,1.50
2023-01-30T12:40:20.551Z,1.40
2023-01-30T12:41:20.559Z,1.30
2023-01-30T12:42:23.680Z,1.60
2023-01-30T12:43:20.590Z,1.40
2023-01-30T12:44:20.608Z,1.50
2023-01-30T12:45:20.923Z,1.60
2023-01-30T12:46:20.671Z,1.40
2023-01-30T12:47:20.645Z,1.40
2023-01-30T12:48:20.690Z,1.40
2023-01-30T12:49:20.683Z,1.60
2023-01-30T12:50:20.702Z,1.50
2023-01-30T12:51:20.709Z,1.50
2023-01-30T12:52:20.723Z,1.60
2023-01-30T12:53:20.739Z,1.40
2023-01-30T12:54:21.317Z,1.50
2023-01-30T12:55:20.770Z,1.50
2023-01-30T12:56:20.790Z,1.60
2023-01-30T12:57:20.811Z,1.50
2023-01-30T12:58:20.827Z,1.50
2023-01-30T12:59:20.835Z,1.50
2023-01-30T13:00:21.099Z,1.50
2023-01-30T13:01:20.877Z,1.50
2023-01-30T13:02:20.941Z,1.60
2023-01-30T13:03:20.903Z,1.60
2023-01-30T13:04:20.968Z,1.40
2023-01-30T13:05:20.937Z,1.60
2023-01-30T13:06:20.943Z,1.60
2023-01-30T13:07:20.965Z,1.40
2023-01-30T13:08:20.985Z,1.50
2023-01-30T13:09:21.007Z,1.50
2023-01-30T13:10:21.587Z,1.30
2023-01-30T13:11:21.030Z,1.60
2023-01-30T13:12:21.039Z,1.70
2023-01-30T13:13:21.056Z,1.50
2023-01-30T13:14:21.078Z,1.50
2023-01-30T13:15:21.096Z,1.60
2023-01-30T13:16:21.186Z,1.60
2023-01-30T13:17:21.117Z,1.60
2023-01-30T13:18:21.152Z,1.50
2023-01-30T13:19:23.055Z,1.40